createdAt,value
2023-04-13T00:02:06.424Z,100.00
2023-04-13T00:04:34.151Z,100.00
2023-04-13T00:07:03.548Z,100.00
2023-04-13T00:09:32.918Z,100.00
2023-04-13T00:11:59.842Z,100.00
2023-04-13T00:14:35.342Z,100.00
2023-04-13T00:17:03.108Z,100.00
2023-04-13T00:19:29.814Z,100.00
2023-04-13T00:21:57.447Z,100.00
2023-04-13T00:24:24.112Z,100.00
2023-04-13T00:26:51.574Z,100.00
2023-04-13T00:29:18.209Z,100.00
2023-04-13T00:31:44.665Z,100.00
2023-04-13T00:34:11.265Z,100.00
2023-04-13T00:36:37.856Z,100.00
2023-04-13T00:39:04.352Z,100.00
2023-04-13T00:41:30.813Z,100.00
2023-04-13T00:43:59.032Z,100.00
2023-04-13T00:46:25.918Z,100.00
2023-04-13T00:48:52.930Z,100.00
2023-04-13T00:51:20.003Z,100.00
2023-04-13T00:53:46.526Z,100.00
2023-04-13T00:56:13.297Z,100.00
2023-04-13T00:58:39.720Z,100.00
2023-04-13T01:01:06.441Z,100.00
2023-04-13T01:03:32.931Z,100.00
2023-04-13T01:06:08.650Z,100.00
2023-04-13T01:08:48.028Z,100.00
2023-04-13T01:11:39.506Z,100.00
2023-04-13T01:14:11.427Z,100.00
2023-04-13T01:16:49.391Z,100.00
2023-04-13T01:19:28.330Z,100.00
2023-04-13T01:21:55.668Z,100.00
2023-04-13T01:24:41.906Z,100.00
2023-04-13T01:27:17.833Z,100.00
2023-04-13T01:29:46.680Z,100.00
2023-04-13T01:32:16.831Z,100.00
2023-04-13T01:34:43.444Z,100.00
2023-04-13T01:51:32.176Z,100.00
2023-04-13T01:54:12.951Z,100.00
2023-04-13T01:56:40.625Z,100.00
2023-04-13T01:59:16.810Z,100.00
2023-04-13T02:01:43.721Z,100.00
2023-04-13T02:04:10.436Z,100.00
2023-04-13T02:06:37.282Z,100.00
2023-04-13T02:09:07.041Z,100.00
2023-04-13T02:11:35.304Z,100.00
2023-04-13T02:14:02.353Z,100.00
2023-04-13T02:16:31.482Z,100.00
2023-04-13T02:18:58.437Z,100.00
2023-04-13T02:21:25.824Z,100.00
2023-04-13T02:23:52.623Z,100.00
2023-04-13T02:26:19.680Z,100.00
2023-04-13T02:28:46.481Z,100.00
2023-04-13T02:31:16.887Z,100.00
2023-04-13T02:33:44.881Z,100.00
2023-04-13T02:36:15.233Z,100.00
2023-04-13T02:38:42.278Z,100.00
2023-04-13T02:41:09.248Z,100.00
2023-04-13T02:43:35.760Z,100.00
2023-04-13T02:46:02.300Z,100.00
2023-04-13T02:48:29.118Z,100.00
2023-04-13T02:50:55.660Z,100.00
2023-04-13T02:53:22.262Z,100.00
2023-04-13T02:55:50.470Z,100.00
2023-04-13T02:58:17.274Z,100.00
2023-04-13T03:00:44.636Z,100.00
2023-04-13T03:03:11.528Z,100.00
2023-04-13T03:05:38.906Z,100.00
2023-04-13T03:08:05.766Z,100.00
2023-04-13T03:10:32.329Z,99.78
2023-04-13T03:12:59.011Z,99.79
2023-04-13T03:15:25.455Z,100.00
2023-04-13T03:17:52.979Z,99.72
2023-04-13T03:20:20.897Z,100.00
2023-04-13T03:22:47.420Z,100.00
2023-04-13T03:25:13.844Z,100.00
2023-04-13T03:27:40.601Z,100.00
2023-04-13T03:30:07.669Z,99.51
2023-04-13T03:32:34.247Z,100.00
2023-04-13T03:35:00.703Z,100.00
2023-04-13T03:37:30.214Z,100.00
2023-04-13T03:39:58.047Z,100.00
2023-04-13T03:42:24.492Z,100.00
2023-04-13T03:44:51.229Z,100.00
2023-04-13T03:47:17.625Z,100.00
2023-04-13T03:49:44.063Z,100.00
2023-04-13T03:52:10.732Z,100.00
2023-04-13T03:54:38.116Z,100.00
2023-04-13T03:57:05.065Z,100.00
2023-04-13T03:59:31.556Z,100.00
2023-04-13T04:01:58.558Z,100.00
2023-04-13T04:04:25.472Z,100.00
2023-04-13T04:06:52.169Z,100.00
2023-04-13T04:09:18.661Z,100.00
2023-04-13T04:11:45.643Z,100.00
2023-04-13T04:14:12.079Z,100.00
2023-04-13T04:16:38.578Z,100.00
2023-04-13T04:19:05.107Z,100.00
2023-04-13T04:21:34.487Z,100.00
2023-04-13T04:24:06.197Z,100.00
2023-04-13T04:26:32.732Z,100.00
2023-04-13T04:29:02.830Z,100.00
2023-04-13T04:31:43.864Z,100.00
2023-04-13T04:34:11.662Z,100.00
2023-04-13T04:36:41.668Z,100.00
2023-04-13T04:39:09.986Z,100.00
2023-04-13T04:41:46.987Z,99.44
2023-04-13T04:44:16.729Z,99.77
2023-04-13T04:46:43.740Z,100.00
2023-04-13T04:49:11.122Z,100.00
2023-04-13T04:51:37.747Z,99.78
2023-04-13T04:54:05.304Z,99.76
2023-04-13T04:56:32.173Z,99.41
2023-04-13T04:58:58.863Z,99.74
2023-04-13T05:01:26.939Z,99.51
2023-04-13T05:03:53.642Z,100.00
2023-04-13T05:06:20.360Z,100.00
2023-04-13T05:08:46.795Z,100.00
2023-04-13T05:11:13.262Z,100.00
2023-04-13T05:13:39.690Z,100.00
2023-04-13T05:16:06.672Z,100.00
2023-04-13T05:18:46.602Z,100.00
2023-04-13T05:21:14.544Z,100.00
2023-04-13T05:23:42.184Z,100.00
2023-04-13T05:26:12.678Z,100.00
2023-04-13T05:28:39.769Z,100.00
2023-04-13T05:31:08.919Z,100.00
2023-04-13T05:33:35.935Z,100.00
2023-04-13T05:36:06.205Z,100.00
2023-04-13T05:38:33.119Z,100.00
2023-04-13T05:40:59.847Z,100.00
2023-04-13T05:43:26.779Z,100.00
2023-04-13T05:45:53.249Z,100.00
2023-04-13T05:48:19.688Z,100.00
2023-04-13T05:50:46.371Z,100.00
2023-04-13T05:53:12.844Z,100.00
2023-04-13T05:55:40.611Z,100.00
2023-04-13T05:58:08.803Z,100.00
2023-04-13T06:00:35.288Z,100.00
2023-04-13T06:03:02.521Z,100.00
2023-04-13T06:05:31.985Z,100.00
2023-04-13T06:07:59.848Z,100.00
2023-04-13T06:10:26.815Z,100.00
2023-04-13T06:12:56.400Z,100.00
2023-04-13T06:15:22.993Z,100.00
2023-04-13T06:17:58.222Z,100.00
2023-04-13T06:20:24.689Z,100.00
2023-04-13T06:22:53.492Z,99.70
2023-04-13T06:25:19.992Z,98.37
2023-04-13T06:27:47.388Z,97.71
2023-04-13T06:30:14.127Z,97.52
2023-04-13T06:32:40.673Z,98.39
2023-04-13T06:35:07.364Z,98.87
2023-04-13T06:37:35.827Z,96.95
2023-04-13T06:40:15.828Z,95.84
2023-04-13T06:42:42.725Z,93.24
2023-04-13T06:45:10.199Z,94.24
2023-04-13T06:47:37.594Z,93.38
2023-04-13T06:50:06.904Z,93.27
2023-04-13T06:52:34.747Z,92.80
2023-04-13T06:55:02.048Z,93.33
2023-04-13T06:57:29.967Z,92.34
2023-04-13T06:59:56.687Z,93.13
2023-04-13T07:02:23.137Z,93.80
2023-04-13T07:04:50.016Z,93.25
2023-04-13T07:07:16.821Z,93.93
2023-04-13T07:09:43.408Z,91.65
2023-04-13T07:12:10.184Z,91.17
2023-04-13T07:14:37.561Z,90.64
2023-04-13T07:17:04.852Z,90.14
2023-04-13T07:19:32.693Z,90.22
2023-04-13T07:22:00.617Z,89.67
2023-04-13T07:24:30.158Z,90.62
2023-04-13T07:27:00.291Z,89.54
2023-04-13T07:29:26.949Z,88.78
2023-04-13T07:31:59.556Z,88.16
2023-04-13T07:34:26.632Z,87.66
2023-04-13T07:36:58.773Z,86.47
2023-04-13T07:39:25.433Z,86.79
2023-04-13T07:41:52.224Z,85.96
2023-04-13T07:44:19.158Z,85.53
2023-04-13T07:46:45.980Z,87.54
2023-04-13T07:49:12.806Z,85.95
2023-04-13T07:51:39.279Z,84.04
2023-04-13T07:54:06.109Z,86.59
2023-04-13T07:56:32.620Z,84.70
2023-04-13T07:58:59.553Z,83.70
2023-04-13T08:01:26.495Z,82.38
2023-04-13T08:03:54.556Z,81.08
2023-04-13T08:06:21.524Z,81.95
2023-04-13T08:08:48.064Z,82.39
2023-04-13T08:11:15.651Z,81.38
2023-04-13T08:13:42.405Z,80.15
2023-04-13T08:16:10.721Z,79.09
2023-04-13T08:18:37.830Z,78.79
2023-04-13T08:21:10.899Z,78.63
2023-04-13T08:23:40.126Z,75.98
2023-04-13T08:26:06.687Z,73.18
2023-04-13T08:28:33.427Z,71.26
2023-04-13T08:31:00.119Z,70.40
2023-04-13T08:33:29.502Z,71.07
2023-04-13T08:35:56.416Z,68.17
2023-04-13T08:38:22.883Z,69.33
2023-04-13T08:40:50.435Z,67.90
2023-04-13T08:43:19.569Z,70.07
2023-04-13T08:45:46.275Z,70.03
2023-04-13T08:48:14.281Z,70.27
2023-04-13T08:50:43.373Z,70.53
2023-04-13T08:53:12.807Z,70.18
2023-04-13T08:55:43.699Z,70.45
2023-04-13T08:58:12.387Z,68.72
2023-04-13T09:00:41.739Z,68.54
2023-04-13T09:03:14.103Z,68.88
2023-04-13T09:05:42.118Z,68.51
2023-04-13T09:08:13.686Z,68.45
2023-04-13T09:10:50.068Z,66.83
2023-04-13T09:13:16.735Z,68.49
2023-04-13T09:15:51.172Z,70.25
2023-04-13T09:18:22.921Z,67.12
2023-04-13T09:21:04.347Z,66.20
2023-04-13T09:23:31.657Z,65.69
2023-04-13T09:26:08.923Z,65.50
2023-04-13T09:28:51.267Z,67.30
2023-04-13T09:31:18.978Z,66.44
2023-04-13T09:33:48.844Z,65.00
2023-04-13T09:36:24.337Z,65.99
2023-04-13T09:38:52.798Z,63.77
2023-04-13T09:41:51.020Z,65.94
2023-04-13T09:44:24.617Z,63.01
2023-04-13T09:46:59.357Z,64.55
2023-04-13T09:49:26.693Z,65.32
2023-04-13T09:51:56.349Z,64.86
2023-04-13T09:54:22.952Z,64.54
2023-04-13T09:56:58.826Z,64.12
2023-04-13T09:59:27.434Z,60.84
2023-04-13T10:02:02.226Z,62.86
2023-04-13T10:04:30.904Z,59.87
2023-04-13T10:06:57.490Z,62.55
2023-04-13T10:09:27.336Z,59.54
2023-04-13T10:11:56.032Z,58.83
2023-04-13T10:14:31.664Z,60.92
2023-04-13T10:17:05.884Z,60.35
2023-04-13T10:19:41.319Z,58.79
2023-04-13T10:22:11.557Z,60.61
2023-04-13T10:24:39.944Z,59.99
2023-04-13T10:27:18.314Z,58.78
2023-04-13T10:29:45.375Z,59.54
2023-04-13T10:32:22.553Z,60.59
2023-04-13T10:34:49.623Z,60.69
2023-04-13T10:37:21.558Z,58.67
2023-04-13T10:39:48.359Z,58.01
2023-04-13T10:42:17.250Z,58.33
2023-04-13T10:44:48.809Z,59.94
2023-04-13T10:47:17.180Z,57.90
2023-04-13T10:49:46.805Z,60.50
2023-04-13T10:52:13.594Z,58.88
2023-04-13T10:54:41.266Z,58.74
2023-04-13T10:57:09.722Z,58.21
2023-04-13T11:02:16.588Z,57.29
2023-04-13T11:04:46.385Z,58.19
2023-04-13T11:07:15.255Z,59.22
2023-04-13T11:09:45.922Z,58.70
2023-04-13T11:12:13.147Z,59.06
2023-04-13T11:14:39.558Z,59.27
2023-04-13T11:17:07.735Z,58.90
2023-04-13T11:19:49.899Z,59.24
2023-04-13T11:22:18.636Z,60.16
2023-04-13T11:24:49.084Z,58.93
2023-04-13T11:27:23.298Z,60.29
2023-04-13T11:30:00.834Z,58.88
2023-04-13T11:32:30.672Z,59.23
2023-04-13T11:35:11.043Z,58.81
2023-04-13T11:37:39.630Z,60.31
2023-04-13T11:40:14.071Z,57.48
2023-04-13T11:42:46.280Z,54.72
2023-04-13T11:45:17.025Z,57.04
2023-04-13T11:47:46.296Z,55.79
2023-04-13T11:50:15.743Z,55.90
2023-04-13T11:52:43.684Z,56.49
2023-04-13T11:55:22.284Z,56.48
2023-04-13T11:57:50.830Z,55.99
2023-04-13T12:00:24.476Z,56.70
2023-04-13T12:03:02.980Z,55.78
2023-04-13T12:05:32.784Z,54.39
2023-04-13T12:08:00.844Z,54.88
2023-04-13T12:10:42.640Z,56.24
2023-04-13T12:16:04.987Z,55.41
2023-04-13T12:18:43.653Z,55.88
2023-04-13T12:21:20.481Z,55.86
2023-04-13T12:23:59.604Z,55.03
2023-04-13T12:29:08.579Z,59.15
2023-04-13T12:31:39.714Z,57.56
2023-04-13T12:34:08.166Z,57.95
2023-04-13T12:36:36.497Z,56.26
2023-04-13T12:39:04.452Z,55.20
2023-04-13T12:41:31.931Z,55.02
2023-04-13T12:43:58.386Z,54.19
2023-04-13T12:46:25.250Z,53.58
2023-04-13T12:48:52.947Z,55.13
2023-04-13T12:51:19.490Z,55.12
2023-04-13T12:53:46.131Z,54.26
2023-04-13T12:56:12.866Z,54.58
2023-04-13T12:58:39.322Z,54.88
2023-04-13T13:01:06.917Z,53.70
2023-04-13T13:03:34.042Z,54.42
2023-04-13T13:06:00.878Z,53.80
2023-04-13T13:08:31.425Z,53.04
2023-04-13T13:11:01.003Z,53.87
2023-04-13T13:13:27.437Z,52.53
2023-04-13T13:15:53.942Z,53.03
2023-04-13T13:18:20.442Z,51.51
2023-04-13T13:20:49.307Z,53.01
2023-04-13T13:23:16.043Z,53.48
2023-04-13T13:25:54.214Z,49.95
2023-04-13T13:28:31.086Z,52.54
2023-04-13T13:30:57.521Z,50.93
2023-04-13T13:33:24.257Z,50.87
2023-04-13T13:35:50.682Z,50.36
2023-04-13T13:38:17.162Z,49.45
2023-04-13T13:40:43.661Z,52.00
2023-04-13T13:43:10.961Z,52.38
2023-04-13T13:45:56.266Z,51.97
2023-04-13T13:48:33.988Z,53.44
2023-04-13T13:51:01.044Z,52.95
2023-04-13T13:53:30.280Z,52.98
2023-04-13T13:55:56.805Z,53.07
2023-04-13T13:58:23.319Z,52.81
2023-04-13T14:00:50.761Z,53.52
2023-04-13T14:03:38.667Z,53.56
2023-04-13T14:06:05.199Z,53.50
2023-04-13T14:08:31.648Z,52.98
2023-04-13T14:10:58.905Z,53.17
2023-04-13T14:13:25.444Z,52.51
2023-04-13T14:15:52.009Z,51.91
2023-04-13T14:18:23.709Z,52.16
2023-04-13T14:20:51.189Z,52.21
2023-04-13T14:23:18.452Z,53.91
2023-04-13T14:25:44.998Z,52.14
2023-04-13T14:28:11.862Z,53.37
2023-04-13T14:30:41.481Z,54.11
2023-04-13T14:33:10.475Z,53.89
2023-04-13T14:35:38.806Z,52.58
2023-04-13T14:45:41.171Z,53.64
2023-04-13T14:48:08.043Z,51.44
2023-04-13T14:50:38.301Z,53.21
2023-04-13T14:53:07.475Z,52.95
2023-04-13T14:55:34.313Z,53.19
2023-04-13T14:58:01.935Z,54.03
2023-04-13T15:00:40.294Z,53.85
2023-04-13T15:03:10.904Z,51.49
2023-04-13T15:06:01.272Z,54.34
2023-04-13T15:08:30.002Z,53.39
2023-04-13T15:10:56.580Z,53.86
2023-04-13T15:13:23.000Z,54.93
2023-04-13T15:15:52.091Z,54.99
2023-04-13T15:18:18.720Z,53.88
2023-04-13T15:20:45.286Z,53.67
2023-04-13T15:23:20.030Z,52.63
2023-04-13T15:25:47.099Z,53.27
2023-04-13T15:28:13.592Z,53.09
2023-04-13T15:30:42.338Z,52.89
2023-04-13T15:33:09.011Z,53.30
2023-04-13T15:35:35.955Z,53.37
2023-04-13T15:38:02.608Z,54.08
2023-04-13T15:40:40.650Z,52.30
2023-04-13T15:43:10.644Z,52.51
2023-04-13T15:45:37.148Z,52.30
2023-04-13T15:48:03.886Z,52.77
2023-04-13T15:50:30.372Z,53.23
2023-04-13T15:52:57.150Z,52.74
2023-04-13T15:55:23.639Z,55.11
2023-04-13T15:57:53.642Z,53.98
2023-04-13T16:00:20.307Z,53.92
2023-04-13T16:02:47.155Z,52.25
2023-04-13T16:05:13.811Z,53.26
2023-04-13T16:07:40.256Z,53.16
2023-04-13T16:10:07.649Z,52.58
2023-04-13T16:12:34.805Z,53.22
2023-04-13T16:15:02.219Z,52.54
2023-04-13T16:17:31.747Z,53.63
2023-04-13T16:20:17.698Z,53.00
2023-04-13T16:22:48.982Z,54.75
2023-04-13T16:25:16.662Z,54.03
2023-04-13T16:27:43.604Z,53.99
2023-04-13T16:30:13.012Z,52.83
2023-04-13T16:32:46.724Z,52.83
2023-04-13T16:35:13.699Z,53.08
2023-04-13T16:37:43.209Z,54.00
2023-04-13T16:40:11.028Z,55.32
2023-04-13T16:42:38.997Z,53.26
2023-04-13T16:45:07.469Z,52.93
2023-04-13T16:47:34.149Z,52.65
2023-04-13T16:50:00.744Z,52.96
2023-04-13T16:52:27.310Z,54.50
2023-04-13T16:54:53.836Z,52.33
2023-04-13T16:57:20.667Z,54.79
2023-04-13T16:59:47.138Z,53.74
2023-04-13T17:02:30.232Z,55.26
2023-04-13T17:04:57.840Z,54.11
2023-04-13T17:07:44.602Z,54.79
2023-04-13T17:30:18.314Z,60.01
2023-04-13T17:32:45.584Z,61.90
2023-04-13T17:35:12.206Z,62.39
2023-04-13T17:37:41.453Z,62.08
2023-04-13T17:40:08.693Z,62.37
2023-04-13T17:42:35.528Z,64.17
2023-04-13T17:45:02.324Z,67.13
2023-04-13T17:47:31.848Z,67.54
2023-04-13T17:49:58.622Z,69.63
2023-04-13T17:52:25.051Z,70.87
2023-04-13T17:54:54.182Z,71.32
2023-04-13T17:57:20.861Z,72.12
2023-04-13T17:59:49.715Z,72.88
2023-04-13T18:02:18.512Z,73.57
2023-04-13T18:04:45.482Z,73.03
2023-04-13T18:07:12.094Z,73.25
2023-04-13T18:09:38.552Z,74.36
2023-04-13T18:12:05.089Z,75.66
2023-04-13T18:14:31.661Z,75.79
2023-04-13T18:16:58.481Z,76.42
2023-04-13T18:19:27.220Z,77.34
2023-04-13T18:21:58.022Z,78.75
2023-04-13T18:24:47.559Z,79.13
2023-04-13T18:38:46.658Z,82.28
2023-04-13T18:41:23.856Z,82.45
2023-04-13T18:43:50.503Z,81.95
2023-04-13T18:46:17.002Z,83.06
2023-04-13T18:48:43.611Z,84.93
2023-04-13T18:51:12.303Z,84.49
2023-04-13T18:53:39.238Z,83.79
2023-04-13T18:56:05.871Z,84.02
2023-04-13T18:58:32.349Z,83.66
2023-04-13T19:00:58.910Z,83.79
2023-04-13T19:03:25.635Z,84.43
2023-04-13T19:05:54.346Z,83.71
2023-04-13T19:08:20.878Z,84.14
2023-04-13T19:10:47.386Z,85.72
2023-04-13T19:13:15.602Z,85.04
2023-04-13T19:15:42.154Z,85.55
2023-04-13T19:18:11.341Z,84.93
2023-04-13T19:20:38.218Z,84.42
2023-04-13T19:23:04.675Z,84.38
2023-04-13T19:25:31.380Z,86.07
2023-04-13T19:28:11.430Z,86.10
2023-04-13T19:30:37.988Z,85.59
2023-04-13T19:33:04.858Z,85.36
2023-04-13T19:35:32.994Z,85.61
2023-04-13T19:38:01.992Z,86.19
2023-04-13T19:40:28.569Z,85.91
2023-04-13T19:42:59.633Z,86.19
2023-04-13T19:45:26.268Z,86.54
2023-04-13T19:50:33.641Z,87.49
2023-04-13T19:53:00.133Z,87.52
2023-04-13T19:55:29.877Z,87.27
2023-04-13T19:57:58.952Z,88.55
2023-04-13T20:00:26.967Z,88.53
2023-04-13T20:02:58.672Z,88.84
2023-04-13T20:05:25.392Z,88.61
2023-04-13T20:08:06.198Z,87.59
2023-04-13T20:14:19.775Z,87.91
2023-04-13T20:16:46.385Z,87.38
2023-04-13T20:19:13.096Z,87.55
2023-04-13T20:25:19.387Z,89.30
2023-04-13T20:27:46.030Z,88.65
2023-04-13T20:30:15.390Z,88.03
2023-04-13T20:32:42.118Z,89.69
2023-04-13T20:35:09.244Z,89.38
2023-04-13T20:37:36.142Z,90.14
2023-04-13T20:40:07.054Z,90.63
2023-04-13T20:42:36.900Z,89.92
2023-04-13T20:45:20.935Z,90.61
2023-04-13T20:47:59.566Z,90.06
2023-04-13T20:50:27.582Z,89.23
2023-04-13T20:52:56.713Z,90.00
2023-04-13T20:55:25.727Z,90.38
2023-04-13T20:57:55.262Z,90.00
2023-04-13T21:00:25.027Z,90.13
2023-04-13T21:02:54.912Z,90.52
2023-04-13T21:05:22.477Z,91.09
2023-04-13T21:07:58.319Z,91.19
2023-04-13T21:10:25.010Z,90.30
2023-04-13T21:12:53.166Z,90.91
2023-04-13T21:15:19.691Z,91.55
2023-04-13T21:17:46.185Z,90.52
2023-04-13T21:20:12.786Z,91.37
2023-04-13T21:22:41.577Z,91.00
2023-04-13T21:25:08.287Z,90.62
2023-04-13T21:27:34.750Z,90.18
2023-04-13T21:30:01.310Z,92.08
2023-04-13T21:32:27.874Z,91.00
2023-04-13T21:34:55.146Z,90.84
2023-04-13T21:37:21.862Z,90.98
2023-04-13T21:39:48.327Z,91.92
2023-04-13T21:42:16.898Z,91.36
2023-04-13T21:44:43.327Z,92.05
2023-04-13T21:47:09.756Z,93.01
2023-04-13T21:49:36.395Z,92.14
2023-04-13T21:52:03.080Z,91.66
2023-04-13T21:54:29.529Z,91.92
2023-04-13T21:56:55.982Z,92.49
2023-04-13T21:59:27.264Z,92.09
2023-04-13T22:01:54.669Z,91.74
2023-04-13T22:04:21.454Z,92.08
2023-04-13T22:06:47.979Z,92.04
2023-04-13T22:09:14.539Z,92.65
2023-04-13T22:11:41.389Z,92.37
2023-04-13T22:14:07.881Z,92.27
2023-04-13T22:16:34.464Z,92.53
2023-04-13T22:19:01.167Z,93.08
2023-04-13T22:21:28.032Z,92.01
2023-04-13T22:23:54.437Z,92.54
2023-04-13T22:26:21.206Z,92.76
2023-04-13T22:28:47.601Z,93.11
2023-04-13T22:31:14.130Z,93.14
2023-04-13T22:33:40.961Z,92.60
2023-04-13T22:36:22.810Z,94.15
2023-04-13T22:38:49.826Z,94.58
2023-04-13T22:41:16.369Z,94.17
2023-04-13T22:43:42.927Z,94.30
2023-04-13T22:46:09.450Z,94.10
2023-04-13T22:48:36.017Z,94.14
2023-04-13T22:51:03.654Z,95.00
2023-04-13T22:53:33.254Z,95.31
2023-04-13T22:56:00.764Z,95.23
2023-04-13T22:58:27.927Z,95.80
2023-04-13T23:00:54.456Z,94.53
2023-04-13T23:03:21.617Z,95.47
2023-04-13T23:05:48.272Z,95.58
2023-04-13T23:08:14.707Z,94.32
2023-04-13T23:10:41.666Z,94.55
2023-04-13T23:13:08.172Z,94.06
2023-04-13T23:15:34.707Z,93.55
2023-04-13T23:18:02.720Z,93.31
2023-04-13T23:20:29.524Z,94.63
2023-04-13T23:22:55.963Z,94.95
2023-04-13T23:25:22.411Z,94.93
2023-04-13T23:27:48.884Z,94.96
2023-04-13T23:30:16.160Z,94.58
2023-04-13T23:32:42.699Z,94.57
2023-04-13T23:35:09.345Z,94.27
2023-04-13T23:37:35.973Z,94.58
2023-04-13T23:40:02.478Z,94.57
2023-04-13T23:42:32.020Z,94.67
2023-04-13T23:44:58.874Z,94.51
2023-04-13T23:47:25.781Z,94.55
2023-04-13T23:49:54.183Z,93.65
2023-04-13T23:52:20.826Z,93.92
2023-04-13T23:54:47.311Z,94.76
2023-04-13T23:57:13.755Z,94.35
2023-04-13T23:59:40.431Z,94.04
